CPA785 VHHH-WADD
Flight info
| Callsign | CPA785 |
|---|---|
| Flight time | N/A |
| Altitude | 35000 |
| Route | DALOL V652 UNTUL/N0492F360 V652 SABNO/N0495F350 A583 AKOTA/N0491F360 M754 VINIK M522 ELANG/N0491F370 M522 DOBMA |
| Aircraft | B77W/H-SDE1E2E3FGHIJ2J3J4J5M1RWXY/LB1D1 |
Departure
| Time | 2026-05-06 01:38 |
|---|---|
| Airport | Hong Kong International Airport (VHHH) |
Arrival
| Time | N/A |
|---|---|
| Airport | Denpasar I Gusti Ngurah Rai International Airport (WADD) |
| Time | Latitude | Longitude | Altitude | Speed | Heading |
|---|---|---|---|---|---|
| 2026-05-06 01:10 | 22.31507 | 113.92477 | 42 ft | 0 kts | 206° |
| 2026-05-06 01:25 | 22.31508 | 113.92477 | 42 ft | 1 kts | 206° |
| 2026-05-06 01:25 | 22.31530 | 113.92489 | 39 ft | 4 kts | 206° |
| 2026-05-06 01:26 | 22.31554 | 113.92501 | 39 ft | 4 kts | 206° |
| 2026-05-06 01:26 | 22.31575 | 113.92513 | 38 ft | 4 kts | 216° |
| 2026-05-06 01:26 | 22.31590 | 113.92528 | 40 ft | 4 kts | 251° |
| 2026-05-06 01:26 | 22.31591 | 113.92546 | 36 ft | 4 kts | 293° |
| 2026-05-06 01:27 | 22.31579 | 113.92571 | 37 ft | 4 kts | 298° |
| 2026-05-06 01:27 | 22.31575 | 113.92580 | 36 ft | 0 kts | 296° |
| 2026-05-06 01:30 | 22.31575 | 113.92579 | 36 ft | 0 kts | 296° |
| 2026-05-06 01:31 | 22.31581 | 113.92565 | 36 ft | 4 kts | 296° |
| 2026-05-06 01:31 | 22.31602 | 113.92518 | 39 ft | 9 kts | 296° |
| 2026-05-06 01:31 | 22.31640 | 113.92458 | 40 ft | 10 kts | 321° |
| 2026-05-06 01:31 | 22.31701 | 113.92430 | 42 ft | 10 kts | 343° |
| 2026-05-06 01:32 | 22.31740 | 113.92377 | 41 ft | 10 kts | 271° |
| 2026-05-06 01:32 | 22.31724 | 113.92309 | 41 ft | 10 kts | 252° |
| 2026-05-06 01:32 | 22.31704 | 113.92239 | 41 ft | 11 kts | 253° |
| 2026-05-06 01:32 | 22.31668 | 113.92112 | 41 ft | 24 kts | 252° |
| 2026-05-06 01:33 | 22.31600 | 113.91912 | 41 ft | 30 kts | 247° |
| 2026-05-06 01:33 | 22.31527 | 113.91704 | 42 ft | 30 kts | 250° |
| 2026-05-06 01:33 | 22.31460 | 113.91493 | 42 ft | 30 kts | 252° |
| 2026-05-06 01:33 | 22.31393 | 113.91281 | 43 ft | 30 kts | 251° |
| 2026-05-06 01:34 | 22.31324 | 113.91073 | 42 ft | 30 kts | 250° |
| 2026-05-06 01:34 | 22.31254 | 113.90863 | 42 ft | 30 kts | 250° |
| 2026-05-06 01:34 | 22.31187 | 113.90653 | 42 ft | 30 kts | 251° |
| 2026-05-06 01:34 | 22.31120 | 113.90445 | 41 ft | 29 kts | 250° |
| 2026-05-06 01:35 | 22.31059 | 113.90261 | 41 ft | 20 kts | 251° |
| 2026-05-06 01:35 | 22.31017 | 113.90129 | 41 ft | 15 kts | 250° |
| 2026-05-06 01:35 | 22.30983 | 113.90025 | 41 ft | 15 kts | 250° |
| 2026-05-06 01:35 | 22.30952 | 113.89930 | 41 ft | 12 kts | 251° |
| 2026-05-06 01:36 | 22.30936 | 113.89878 | 42 ft | 4 kts | 251° |
| 2026-05-06 01:36 | 22.30927 | 113.89845 | 42 ft | 4 kts | 262° |
| 2026-05-06 01:36 | 22.30938 | 113.89814 | 42 ft | 5 kts | 307° |
| 2026-05-06 01:36 | 22.30968 | 113.89796 | 40 ft | 5 kts | 340° |
| 2026-05-06 01:37 | 22.31023 | 113.89776 | 41 ft | 13 kts | 341° |
| 2026-05-06 01:37 | 22.31102 | 113.89814 | 41 ft | 16 kts | 68° |
| 2026-05-06 01:37 | 22.31164 | 113.90017 | 42 ft | 50 kts | 70° |
| 2026-05-06 01:37 | 22.31364 | 113.90633 | 41 ft | 122 kts | 71° |
| 2026-05-06 01:38 | 22.31711 | 113.91705 | 40 ft | 177 kts | 70° |
| 2026-05-06 01:38 | 22.32127 | 113.92965 | 638 ft | 180 kts | 72° |
| 2026-05-06 01:38 | 22.32540 | 113.94268 | 1320 ft | 184 kts | 72° |
| 2026-05-06 01:38 | 22.32973 | 113.95602 | 1923 ft | 193 kts | 72° |
| 2026-05-06 01:39 | 22.33410 | 113.97078 | 2187 ft | 214 kts | 78° |
| 2026-05-06 01:39 | 22.33692 | 113.98678 | 2797 ft | 221 kts | 82° |
| 2026-05-06 01:39 | 22.33953 | 114.00337 | 3404 ft | 227 kts | 82° |
| 2026-05-06 01:39 | 22.34224 | 114.02045 | 3962 ft | 234 kts | 82° |
| 2026-05-06 01:40 | 22.34413 | 114.03850 | 4268 ft | 254 kts | 94° |
| 2026-05-06 01:40 | 22.34024 | 114.05748 | 4745 ft | 265 kts | 116° |
| 2026-05-06 01:40 | 22.33003 | 114.07379 | 5509 ft | 262 kts | 138° |
| 2026-05-06 01:40 | 22.31504 | 114.08436 | 6300 ft | 258 kts | 162° |
| 2026-05-06 01:41 | 22.29736 | 114.08782 | 6889 ft | 261 kts | 181° |
| 2026-05-06 01:41 | 22.27923 | 114.08756 | 7478 ft | 266 kts | 182° |
| 2026-05-06 01:41 | 22.26030 | 114.08734 | 8136 ft | 271 kts | 182° |
| 2026-05-06 01:41 | 22.24153 | 114.08708 | 8785 ft | 275 kts | 184° |
| 2026-05-06 01:42 | 22.22226 | 114.08677 | 9446 ft | 279 kts | 184° |
| 2026-05-06 01:42 | 22.20269 | 114.08652 | 10086 ft | 283 kts | 184° |
| 2026-05-06 01:42 | 22.18294 | 114.08652 | 10688 ft | 285 kts | 178° |
| 2026-05-06 01:43 | 22.13974 | 114.12880 | 12250 ft | 310 kts | 118° |
| 2026-05-06 01:43 | 22.13003 | 114.14975 | 12866 ft | 315 kts | 118° |
| 2026-05-06 01:43 | 22.12024 | 114.17098 | 13528 ft | 318 kts | 118° |
| 2026-05-06 01:44 | 22.11029 | 114.19235 | 14144 ft | 321 kts | 118° |
| 2026-05-06 01:44 | 22.10009 | 114.21393 | 14721 ft | 323 kts | 118° |
| 2026-05-06 01:44 | 22.08966 | 114.23589 | 15319 ft | 326 kts | 118° |